East Boldon, United Kingdom
Current Conditions -  °F | °C
As of 10:50 PM on Wednesday 26 Nov 2014 (Local Time) from EGNT Reporting Station
Haze Haze  
Wind Chill: 43°   Ceiling: 2200
Heat Index: 43°   Visibility: 0.68mi
Dew Point: 43°   Wind: 0mph
Humidity: 100%   Direction: NA
Pressure: 29.77"   Gusts: NA
Location:  54.95°N, 1.42°W
Report Text: EGNT 262250Z 00000KT 1100 BR FEW010 BKN022 06/06 Q1008
Loading
Personal Weather Stations






























Interactive Weather Map New forecast layout! Learn more

10-Day Weather Forecast

Advertisements
Track Severe Weather on mobile